Terminal Aerodrome Forecast
Issued by NWS Cleveland, OH

Home | Current Version | Previous Version | Graphics & Text | Print | Product List | Glossary On
Versions: 1 2 3 4 5 6 7 8 9 10 11 12 13 14 15 16 17 18 19 20 21 22 23 24 25 26 27
000
FTUS41 KCLE 241700
TAFCLE
TAF
KCLE 241737Z 2418/2524 18010G15KT P6SM BKN015 OVC022
      TEMPO 2418/2420 4SM -SHRA BKN008 OVC020
     FM242000 17010G20KT P6SM -SHRA OVC014
     FM242300 18018G30KT 4SM -SHRA OVC008
     FM250030 22025G45KT P6SM OVC020
     FM250900 24020G32KT 3SM -SHSN OVC018
     FM251200 24020G30KT P6SM OVC018
     FM251500 25012G25KT 5SM -SHSN BR OVC018=

USA.gov is the U.S. government's official web portal to all federal, state and local government web resources and services.